sensor_id;sensor_type;location;lat;lon;timestamp;P1;durP1;ratioP1;P2;durP2;ratioP2
9892;SDS011;4985;49.092;8.542;2022-08-19T00:01:55;13.68;;;9.95;;
9892;SDS011;4985;49.092;8.542;2022-08-19T00:04:23;11.85;;;9.57;;
9892;SDS011;4985;49.092;8.542;2022-08-19T00:06:51;11.70;;;8.98;;
9892;SDS011;4985;49.092;8.542;2022-08-19T00:09:19;12.20;;;9.95;;
9892;SDS011;4985;49.092;8.542;2022-08-19T00:11:47;13.23;;;9.30;;
9892;SDS011;4985;49.092;8.542;2022-08-19T00:14:15;13.70;;;10.40;;
9892;SDS011;4985;49.092;8.542;2022-08-19T00:16:44;12.13;;;10.07;;
9892;SDS011;4985;49.092;8.542;2022-08-19T00:19:12;13.35;;;9.73;;
9892;SDS011;4985;49.092;8.542;2022-08-19T00:21:39;12.60;;;10.60;;
9892;SDS011;4985;49.092;8.542;2022-08-19T00:24:06;14.02;;;10.32;;
9892;SDS011;4985;49.092;8.542;2022-08-19T00:26:34;15.40;;;9.63;;
9892;SDS011;4985;49.092;8.542;2022-08-19T00:29:01;13.02;;;9.73;;
9892;SDS011;4985;49.092;8.542;2022-08-19T00:31:29;12.50;;;9.93;;
9892;SDS011;4985;49.092;8.542;2022-08-19T00:33:57;12.65;;;9.90;;
9892;SDS011;4985;49.092;8.542;2022-08-19T00:36:24;15.05;;;10.82;;
9892;SDS011;4985;49.092;8.542;2022-08-19T00:38:50;14.82;;;11.07;;
9892;SDS011;4985;49.092;8.542;2022-08-19T00:41:19;13.68;;;10.95;;
9892;SDS011;4985;49.092;8.542;2022-08-19T00:43:56;12.75;;;9.75;;
9892;SDS011;4985;49.092;8.542;2022-08-19T00:46:24;15.10;;;10.57;;
9892;SDS011;4985;49.092;8.542;2022-08-19T00:48:50;14.38;;;10.27;;
9892;SDS011;4985;49.092;8.542;2022-08-19T00:51:18;14.60;;;11.75;;
9892;SDS011;4985;49.092;8.542;2022-08-19T00:53:47;12.65;;;9.68;;
9892;SDS011;4985;49.092;8.542;2022-08-19T00:56:13;12.00;;;10.55;;
9892;SDS011;4985;49.092;8.542;2022-08-19T00:58:40;15.48;;;11.15;;
9892;SDS011;4985;49.092;8.542;2022-08-19T01:01:07;15.65;;;10.88;;
9892;SDS011;4985;49.092;8.542;2022-08-19T01:03:34;15.10;;;10.38;;
9892;SDS011;4985;49.092;8.542;2022-08-19T01:06:00;15.23;;;11.02;;
9892;SDS011;4985;49.092;8.542;2022-08-19T01:08:28;15.10;;;11.52;;
9892;SDS011;4985;49.092;8.542;2022-08-19T01:10:56;15.70;;;10.52;;
9892;SDS011;4985;49.092;8.542;2022-08-19T01:13:26;14.13;;;11.63;;
9892;SDS011;4985;49.092;8.542;2022-08-19T01:15:57;15.55;;;10.90;;
9892;SDS011;4985;49.092;8.542;2022-08-19T01:18:29;15.43;;;12.05;;
9892;SDS011;4985;49.092;8.542;2022-08-19T01:20:58;14.82;;;11.60;;
9892;SDS011;4985;49.092;8.542;2022-08-19T01:23:29;16.08;;;12.77;;
9892;SDS011;4985;49.092;8.542;2022-08-19T01:26:08;13.02;;;11.60;;
9892;SDS011;4985;49.092;8.542;2022-08-19T01:28:37;14.87;;;11.73;;
9892;SDS011;4985;49.092;8.542;2022-08-19T01:31:04;15.45;;;12.27;;
9892;SDS011;4985;49.092;8.542;2022-08-19T01:33:32;15.10;;;11.48;;
9892;SDS011;4985;49.092;8.542;2022-08-19T01:36:06;14.63;;;11.57;;
9892;SDS011;4985;49.092;8.542;2022-08-19T01:38:39;15.43;;;11.63;;
9892;SDS011;4985;49.092;8.542;2022-08-19T01:41:07;14.52;;;11.18;;
9892;SDS011;4985;49.092;8.542;2022-08-19T01:43:34;15.57;;;11.38;;
9892;SDS011;4985;49.092;8.542;2022-08-19T01:46:01;14.80;;;11.05;;
9892;SDS011;4985;49.092;8.542;2022-08-19T01:48:32;12.32;;;10.07;;
9892;SDS011;4985;49.092;8.542;2022-08-19T01:50:59;14.93;;;11.75;;
9892;SDS011;4985;49.092;8.542;2022-08-19T01:53:26;16.02;;;12.13;;
9892;SDS011;4985;49.092;8.542;2022-08-19T01:55:54;16.95;;;11.65;;
9892;SDS011;4985;49.092;8.542;2022-08-19T01:58:23;14.43;;;11.75;;
9892;SDS011;4985;49.092;8.542;2022-08-19T02:00:53;17.02;;;11.65;;
9892;SDS011;4985;49.092;8.542;2022-08-19T02:03:19;14.95;;;12.80;;
9892;SDS011;4985;49.092;8.542;2022-08-19T02:05:46;15.20;;;11.20;;
9892;SDS011;4985;49.092;8.542;2022-08-19T02:08:15;14.90;;;11.55;;
9892;SDS011;4985;49.092;8.542;2022-08-19T02:10:42;20.12;;;11.80;;
9892;SDS011;4985;49.092;8.542;2022-08-19T02:13:11;15.63;;;12.07;;
9892;SDS011;4985;49.092;8.542;2022-08-19T02:15:39;17.27;;;12.18;;
9892;SDS011;4985;49.092;8.542;2022-08-19T02:18:06;15.23;;;12.10;;
9892;SDS011;4985;49.092;8.542;2022-08-19T02:20:34;16.10;;;11.95;;
9892;SDS011;4985;49.092;8.542;2022-08-19T02:23:01;14.32;;;11.50;;
9892;SDS011;4985;49.092;8.542;2022-08-19T02:25:28;15.40;;;11.12;;
9892;SDS011;4985;49.092;8.542;2022-08-19T02:27:55;17.20;;;12.63;;
9892;SDS011;4985;49.092;8.542;2022-08-19T02:30:23;15.63;;;11.60;;
9892;SDS011;4985;49.092;8.542;2022-08-19T02:32:50;15.20;;;12.55;;
9892;SDS011;4985;49.092;8.542;2022-08-19T02:35:17;14.87;;;11.85;;
9892;SDS011;4985;49.092;8.542;2022-08-19T02:37:44;13.02;;;11.07;;
9892;SDS011;4985;49.092;8.542;2022-08-19T02:40:28;13.95;;;11.80;;
9892;SDS011;4985;49.092;8.542;2022-08-19T02:42:58;14.98;;;11.95;;
9892;SDS011;4985;49.092;8.542;2022-08-19T02:45:27;16.25;;;13.20;;
9892;SDS011;4985;49.092;8.542;2022-08-19T02:47:57;15.05;;;12.07;;
9892;SDS011;4985;49.092;8.542;2022-08-19T02:50:24;16.20;;;12.10;;
9892;SDS011;4985;49.092;8.542;2022-08-19T02:52:50;18.12;;;12.02;;
9892;SDS011;4985;49.092;8.542;2022-08-19T02:55:17;15.20;;;12.82;;
9892;SDS011;4985;49.092;8.542;2022-08-19T02:57:45;15.43;;;11.85;;
9892;SDS011;4985;49.092;8.542;2022-08-19T03:00:13;14.80;;;12.18;;
9892;SDS011;4985;49.092;8.542;2022-08-19T03:02:41;14.77;;;12.50;;
9892;SDS011;4985;49.092;8.542;2022-08-19T03:05:08;15.93;;;12.20;;
9892;SDS011;4985;49.092;8.542;2022-08-19T03:07:36;17.23;;;12.68;;
9892;SDS011;4985;49.092;8.542;2022-08-19T03:10:03;18.73;;;12.30;;
9892;SDS011;4985;49.092;8.542;2022-08-19T03:12:30;18.08;;;12.75;;
9892;SDS011;4985;49.092;8.542;2022-08-19T03:15:00;16.48;;;12.70;;
9892;SDS011;4985;49.092;8.542;2022-08-19T03:17:27;16.42;;;11.90;;
9892;SDS011;4985;49.092;8.542;2022-08-19T03:19:55;13.98;;;12.10;;
9892;SDS011;4985;49.092;8.542;2022-08-19T03:22:22;14.80;;;12.07;;
9892;SDS011;4985;49.092;8.542;2022-08-19T03:24:48;14.80;;;12.02;;
9892;SDS011;4985;49.092;8.542;2022-08-19T03:27:15;14.65;;;12.55;;
9892;SDS011;4985;49.092;8.542;2022-08-19T03:29:42;15.27;;;12.13;;
9892;SDS011;4985;49.092;8.542;2022-08-19T03:32:09;15.07;;;12.23;;
9892;SDS011;4985;49.092;8.542;2022-08-19T03:34:37;15.32;;;11.73;;
9892;SDS011;4985;49.092;8.542;2022-08-19T03:37:06;15.75;;;12.85;;
9892;SDS011;4985;49.092;8.542;2022-08-19T03:39:35;14.25;;;12.30;;
9892;SDS011;4985;49.092;8.542;2022-08-19T03:42:04;18.77;;;13.02;;
9892;SDS011;4985;49.092;8.542;2022-08-19T03:44:31;15.18;;;11.57;;
9892;SDS011;4985;49.092;8.542;2022-08-19T03:46:58;15.02;;;12.37;;
9892;SDS011;4985;49.092;8.542;2022-08-19T03:49:27;14.60;;;11.90;;
9892;SDS011;4985;49.092;8.542;2022-08-19T03:51:56;19.65;;;12.13;;
9892;SDS011;4985;49.092;8.542;2022-08-19T03:54:26;18.33;;;13.05;;
9892;SDS011;4985;49.092;8.542;2022-08-19T03:56:54;14.73;;;12.13;;
9892;SDS011;4985;49.092;8.542;2022-08-19T03:59:23;16.60;;;12.77;;
9892;SDS011;4985;49.092;8.542;2022-08-19T04:01:52;14.63;;;11.55;;
9892;SDS011;4985;49.092;8.542;2022-08-19T04:04:20;17.60;;;13.32;;
9892;SDS011;4985;49.092;8.542;2022-08-19T04:06:46;15.82;;;12.55;;
9892;SDS011;4985;49.092;8.542;2022-08-19T04:09:13;16.23;;;13.50;;
9892;SDS011;4985;49.092;8.542;2022-08-19T04:11:42;15.82;;;12.02;;
9892;SDS011;4985;49.092;8.542;2022-08-19T04:14:12;14.93;;;12.37;;
9892;SDS011;4985;49.092;8.542;2022-08-19T04:16:41;15.70;;;12.27;;
9892;SDS011;4985;49.092;8.542;2022-08-19T04:19:08;18.30;;;13.40;;
9892;SDS011;4985;49.092;8.542;2022-08-19T04:21:35;14.45;;;12.20;;
9892;SDS011;4985;49.092;8.542;2022-08-19T04:24:02;17.90;;;12.52;;
9892;SDS011;4985;49.092;8.542;2022-08-19T04:26:30;17.15;;;13.43;;
9892;SDS011;4985;49.092;8.542;2022-08-19T04:29:00;17.85;;;12.73;;
9892;SDS011;4985;49.092;8.542;2022-08-19T04:31:30;18.25;;;13.15;;
9892;SDS011;4985;49.092;8.542;2022-08-19T04:34:00;19.15;;;13.40;;
9892;SDS011;4985;49.092;8.542;2022-08-19T04:36:30;16.05;;;13.48;;
9892;SDS011;4985;49.092;8.542;2022-08-19T04:38:59;17.08;;;14.50;;
9892;SDS011;4985;49.092;8.542;2022-08-19T04:41:28;18.75;;;13.82;;
9892;SDS011;4985;49.092;8.542;2022-08-19T04:44:14;19.77;;;13.93;;
9892;SDS011;4985;49.092;8.542;2022-08-19T04:46:43;25.95;;;14.10;;
9892;SDS011;4985;49.092;8.542;2022-08-19T04:49:10;15.95;;;13.27;;
9892;SDS011;4985;49.092;8.542;2022-08-19T04:51:39;16.48;;;13.45;;
9892;SDS011;4985;49.092;8.542;2022-08-19T04:54:07;15.45;;;12.20;;
9892;SDS011;4985;49.092;8.542;2022-08-19T04:56:34;16.23;;;12.52;;
9892;SDS011;4985;49.092;8.542;2022-08-19T04:59:00;15.20;;;12.73;;
9892;SDS011;4985;49.092;8.542;2022-08-19T05:01:31;16.48;;;12.35;;
9892;SDS011;4985;49.092;8.542;2022-08-19T05:04:01;16.48;;;12.60;;
9892;SDS011;4985;49.092;8.542;2022-08-19T05:06:30;18.92;;;13.73;;
9892;SDS011;4985;49.092;8.542;2022-08-19T05:08:59;16.20;;;12.77;;
9892;SDS011;4985;49.092;8.542;2022-08-19T05:11:26;17.87;;;12.43;;
9892;SDS011;4985;49.092;8.542;2022-08-19T05:13:55;15.98;;;12.80;;
9892;SDS011;4985;49.092;8.542;2022-08-19T05:16:22;16.20;;;12.57;;
9892;SDS011;4985;49.092;8.542;2022-08-19T05:18:52;17.70;;;12.65;;
9892;SDS011;4985;49.092;8.542;2022-08-19T05:21:37;17.73;;;13.65;;
9892;SDS011;4985;49.092;8.542;2022-08-19T05:24:23;16.33;;;12.32;;
9892;SDS011;4985;49.092;8.542;2022-08-19T05:26:50;15.38;;;12.77;;
9892;SDS011;4985;49.092;8.542;2022-08-19T05:29:21;16.45;;;12.20;;
9892;SDS011;4985;49.092;8.542;2022-08-19T05:31:49;15.32;;;12.00;;
9892;SDS011;4985;49.092;8.542;2022-08-19T05:34:18;14.25;;;11.52;;
9892;SDS011;4985;49.092;8.542;2022-08-19T05:36:47;15.40;;;12.23;;
9892;SDS011;4985;49.092;8.542;2022-08-19T05:39:16;17.62;;;13.43;;
9892;SDS011;4985;49.092;8.542;2022-08-19T05:41:45;18.20;;;13.62;;
9892;SDS011;4985;49.092;8.542;2022-08-19T05:44:14;16.00;;;12.50;;
9892;SDS011;4985;49.092;8.542;2022-08-19T05:46:42;16.95;;;12.60;;
9892;SDS011;4985;49.092;8.542;2022-08-19T05:49:12;15.98;;;12.25;;
9892;SDS011;4985;49.092;8.542;2022-08-19T05:51:41;13.38;;;11.15;;
9892;SDS011;4985;49.092;8.542;2022-08-19T05:54:09;14.70;;;11.77;;
9892;SDS011;4985;49.092;8.542;2022-08-19T05:56:38;14.65;;;12.00;;
9892;SDS011;4985;49.092;8.542;2022-08-19T05:59:05;15.90;;;12.45;;
9892;SDS011;4985;49.092;8.542;2022-08-19T06:01:34;17.55;;;12.18;;
9892;SDS011;4985;49.092;8.542;2022-08-19T06:04:02;14.73;;;11.65;;
9892;SDS011;4985;49.092;8.542;2022-08-19T06:06:30;14.68;;;11.20;;
9892;SDS011;4985;49.092;8.542;2022-08-19T06:09:00;16.20;;;12.35;;
9892;SDS011;4985;49.092;8.542;2022-08-19T06:11:31;14.65;;;12.13;;
9892;SDS011;4985;49.092;8.542;2022-08-19T06:14:00;17.10;;;11.60;;
9892;SDS011;4985;49.092;8.542;2022-08-19T06:16:28;13.55;;;11.50;;
9892;SDS011;4985;49.092;8.542;2022-08-19T06:18:59;14.75;;;11.55;;
9892;SDS011;4985;49.092;8.542;2022-08-19T06:21:27;15.18;;;11.60;;
9892;SDS011;4985;49.092;8.542;2022-08-19T06:23:55;14.15;;;11.18;;
9892;SDS011;4985;49.092;8.542;2022-08-19T06:26:24;15.15;;;12.18;;
9892;SDS011;4985;49.092;8.542;2022-08-19T06:28:52;15.57;;;11.23;;
9892;SDS011;4985;49.092;8.542;2022-08-19T06:31:20;15.30;;;12.20;;
9892;SDS011;4985;49.092;8.542;2022-08-19T06:33:50;16.48;;;11.40;;
9892;SDS011;4985;49.092;8.542;2022-08-19T06:36:18;14.43;;;11.77;;
9892;SDS011;4985;49.092;8.542;2022-08-19T06:38:46;14.20;;;11.93;;
9892;SDS011;4985;49.092;8.542;2022-08-19T06:41:13;15.82;;;12.05;;
9892;SDS011;4985;49.092;8.542;2022-08-19T06:43:41;14.13;;;11.57;;
9892;SDS011;4985;49.092;8.542;2022-08-19T06:46:09;14.07;;;11.12;;
9892;SDS011;4985;49.092;8.542;2022-08-19T06:48:38;14.82;;;11.18;;
9892;SDS011;4985;49.092;8.542;2022-08-19T06:51:05;13.25;;;10.73;;
9892;SDS011;4985;49.092;8.542;2022-08-19T06:53:32;16.02;;;13.15;;
9892;SDS011;4985;49.092;8.542;2022-08-19T06:55:59;14.10;;;10.50;;
9892;SDS011;4985;49.092;8.542;2022-08-19T06:58:27;15.10;;;11.95;;
9892;SDS011;4985;49.092;8.542;2022-08-19T07:00:58;14.82;;;10.65;;
9892;SDS011;4985;49.092;8.542;2022-08-19T07:03:27;13.73;;;11.15;;
9892;SDS011;4985;49.092;8.542;2022-08-19T07:05:56;11.88;;;10.32;;
9892;SDS011;4985;49.092;8.542;2022-08-19T07:08:24;11.85;;;10.00;;
9892;SDS011;4985;49.092;8.542;2022-08-19T07:10:52;13.77;;;10.52;;
9892;SDS011;4985;49.092;8.542;2022-08-19T07:13:19;11.98;;;10.68;;
9892;SDS011;4985;49.092;8.542;2022-08-19T07:15:48;12.63;;;10.05;;
9892;SDS011;4985;49.092;8.542;2022-08-19T07:18:17;15.05;;;10.32;;
9892;SDS011;4985;49.092;8.542;2022-08-19T07:20:45;12.45;;;8.88;;
9892;SDS011;4985;49.092;8.542;2022-08-19T07:23:12;12.70;;;10.93;;
9892;SDS011;4985;49.092;8.542;2022-08-19T07:25:39;13.82;;;10.35;;
9892;SDS011;4985;49.092;8.542;2022-08-19T07:28:06;14.60;;;9.98;;
9892;SDS011;4985;49.092;8.542;2022-08-19T07:30:36;13.27;;;10.68;;
9892;SDS011;4985;49.092;8.542;2022-08-19T07:33:03;15.98;;;10.13;;
9892;SDS011;4985;49.092;8.542;2022-08-19T07:35:31;13.00;;;11.10;;
9892;SDS011;4985;49.092;8.542;2022-08-19T07:40:27;13.57;;;9.70;;
9892;SDS011;4985;49.092;8.542;2022-08-19T07:42:54;13.27;;;9.75;;
9892;SDS011;4985;49.092;8.542;2022-08-19T07:45:20;12.65;;;9.85;;
9892;SDS011;4985;49.092;8.542;2022-08-19T07:47:47;12.70;;;10.40;;
9892;SDS011;4985;49.092;8.542;2022-08-19T07:50:14;12.98;;;10.48;;
9892;SDS011;4985;49.092;8.542;2022-08-19T07:52:42;10.23;;;7.97;;
9892;SDS011;4985;49.092;8.542;2022-08-19T07:55:09;11.00;;;9.10;;
9892;SDS011;4985;49.092;8.542;2022-08-19T07:57:36;12.02;;;10.07;;
9892;SDS011;4985;49.092;8.542;2022-08-19T08:00:04;11.25;;;9.73;;
9892;SDS011;4985;49.092;8.542;2022-08-19T08:02:32;13.88;;;10.10;;
9892;SDS011;4985;49.092;8.542;2022-08-19T08:04:59;12.00;;;9.15;;
9892;SDS011;4985;49.092;8.542;2022-08-19T08:07:44;12.50;;;10.30;;
9892;SDS011;4985;49.092;8.542;2022-08-19T08:10:28;12.18;;;9.82;;
9892;SDS011;4985;49.092;8.542;2022-08-19T08:12:55;12.02;;;9.40;;
9892;SDS011;4985;49.092;8.542;2022-08-19T08:15:21;11.57;;;10.10;;
9892;SDS011;4985;49.092;8.542;2022-08-19T08:17:48;13.73;;;10.38;;
9892;SDS011;4985;49.092;8.542;2022-08-19T08:20:15;12.52;;;9.57;;
9892;SDS011;4985;49.092;8.542;2022-08-19T08:22:45;10.05;;;8.55;;
9892;SDS011;4985;49.092;8.542;2022-08-19T08:25:30;9.35;;;7.97;;
9892;SDS011;4985;49.092;8.542;2022-08-19T08:27:57;12.88;;;9.45;;
9892;SDS011;4985;49.092;8.542;2022-08-19T08:30:25;12.30;;;8.88;;
9892;SDS011;4985;49.092;8.542;2022-08-19T08:32:53;9.77;;;8.13;;
9892;SDS011;4985;49.092;8.542;2022-08-19T08:35:22;12.45;;;8.57;;
9892;SDS011;4985;49.092;8.542;2022-08-19T08:37:52;13.43;;;8.23;;
9892;SDS011;4985;49.092;8.542;2022-08-19T08:40:22;10.70;;;8.77;;
9892;SDS011;4985;49.092;8.542;2022-08-19T08:42:54;11.63;;;9.13;;
9892;SDS011;4985;49.092;8.542;2022-08-19T08:45:26;11.25;;;7.30;;
9892;SDS011;4985;49.092;8.542;2022-08-19T08:47:54;9.30;;;7.72;;
9892;SDS011;4985;49.092;8.542;2022-08-19T08:50:27;9.05;;;7.40;;
9892;SDS011;4985;49.092;8.542;2022-08-19T08:53:02;11.70;;;8.65;;
9892;SDS011;4985;49.092;8.542;2022-08-19T08:55:31;14.27;;;7.95;;
9892;SDS011;4985;49.092;8.542;2022-08-19T08:57:59;9.73;;;7.85;;
9892;SDS011;4985;49.092;8.542;2022-08-19T09:00:30;9.15;;;7.22;;
9892;SDS011;4985;49.092;8.542;2022-08-19T09:02:58;8.15;;;6.43;;
9892;SDS011;4985;49.092;8.542;2022-08-19T09:05:27;11.77;;;6.82;;
9892;SDS011;4985;49.092;8.542;2022-08-19T09:08:07;10.25;;;7.30;;
9892;SDS011;4985;49.092;8.542;2022-08-19T09:10:39;8.40;;;6.55;;
9892;SDS011;4985;49.092;8.542;2022-08-19T09:13:11;8.55;;;6.10;;
9892;SDS011;4985;49.092;8.542;2022-08-19T09:15:47;8.52;;;6.47;;
9892;SDS011;4985;49.092;8.542;2022-08-19T09:18:19;9.90;;;6.57;;
9892;SDS011;4985;49.092;8.542;2022-08-19T09:20:46;9.93;;;5.97;;
9892;SDS011;4985;49.092;8.542;2022-08-19T09:23:14;8.02;;;7.10;;
9892;SDS011;4985;49.092;8.542;2022-08-19T09:25:42;8.27;;;6.85;;
9892;SDS011;4985;49.092;8.542;2022-08-19T09:28:10;8.73;;;6.20;;
9892;SDS011;4985;49.092;8.542;2022-08-19T09:30:39;8.65;;;5.85;;
9892;SDS011;4985;49.092;8.542;2022-08-19T09:33:07;8.70;;;5.78;;
9892;SDS011;4985;49.092;8.542;2022-08-19T09:35:34;7.32;;;6.20;;
9892;SDS011;4985;49.092;8.542;2022-08-19T09:38:01;7.97;;;5.68;;
9892;SDS011;4985;49.092;8.542;2022-08-19T09:40:29;9.45;;;5.78;;
9892;SDS011;4985;49.092;8.542;2022-08-19T09:42:56;8.73;;;5.57;;
9892;SDS011;4985;49.092;8.542;2022-08-19T09:45:27;8.50;;;5.32;;
9892;SDS011;4985;49.092;8.542;2022-08-19T09:47:55;5.68;;;4.97;;
9892;SDS011;4985;49.092;8.542;2022-08-19T09:50:22;8.48;;;5.35;;
9892;SDS011;4985;49.092;8.542;2022-08-19T09:52:49;7.20;;;4.87;;
9892;SDS011;4985;49.092;8.542;2022-08-19T09:55:17;5.60;;;4.07;;
9892;SDS011;4985;49.092;8.542;2022-08-19T09:57:45;7.10;;;4.85;;
9892;SDS011;4985;49.092;8.542;2022-08-19T10:00:12;6.20;;;4.72;;
9892;SDS011;4985;49.092;8.542;2022-08-19T10:02:39;5.55;;;4.82;;
9892;SDS011;4985;49.092;8.542;2022-08-19T10:05:06;3.65;;;3.35;;
9892;SDS011;4985;49.092;8.542;2022-08-19T10:07:50;5.70;;;5.00;;
9892;SDS011;4985;49.092;8.542;2022-08-19T10:10:17;10.95;;;5.25;;
9892;SDS011;4985;49.092;8.542;2022-08-19T10:12:45;5.18;;;4.68;;
9892;SDS011;4985;49.092;8.542;2022-08-19T10:15:12;6.95;;;5.10;;
9892;SDS011;4985;49.092;8.542;2022-08-19T10:17:39;7.32;;;4.80;;
9892;SDS011;4985;49.092;8.542;2022-08-19T10:20:06;4.50;;;3.47;;
9892;SDS011;4985;49.092;8.542;2022-08-19T10:22:33;7.85;;;4.60;;
9892;SDS011;4985;49.092;8.542;2022-08-19T10:25:02;6.45;;;4.85;;
9892;SDS011;4985;49.092;8.542;2022-08-19T10:27:30;4.43;;;2.95;;
9892;SDS011;4985;49.092;8.542;2022-08-19T10:29:58;5.12;;;3.60;;
9892;SDS011;4985;49.092;8.542;2022-08-19T10:32:25;6.85;;;4.20;;
9892;SDS011;4985;49.092;8.542;2022-08-19T10:34:52;4.03;;;3.15;;
9892;SDS011;4985;49.092;8.542;2022-08-19T10:37:19;7.03;;;3.37;;
9892;SDS011;4985;49.092;8.542;2022-08-19T10:39:46;4.60;;;3.95;;
9892;SDS011;4985;49.092;8.542;2022-08-19T10:42:13;7.22;;;3.75;;
9892;SDS011;4985;49.092;8.542;2022-08-19T10:44:41;5.45;;;3.97;;
9892;SDS011;4985;49.092;8.542;2022-08-19T10:47:10;6.05;;;3.60;;
9892;SDS011;4985;49.092;8.542;2022-08-19T10:49:37;4.32;;;3.17;;
9892;SDS011;4985;49.092;8.542;2022-08-19T10:52:23;4.53;;;3.85;;
9892;SDS011;4985;49.092;8.542;2022-08-19T10:54:58;6.40;;;3.67;;
9892;SDS011;4985;49.092;8.542;2022-08-19T10:57:42;4.22;;;3.83;;
9892;SDS011;4985;49.092;8.542;2022-08-19T11:00:10;10.85;;;2.92;;
9892;SDS011;4985;49.092;8.542;2022-08-19T11:02:39;6.10;;;3.65;;
9892;SDS011;4985;49.092;8.542;2022-08-19T11:05:07;5.72;;;4.40;;
9892;SDS011;4985;49.092;8.542;2022-08-19T11:07:35;3.75;;;3.25;;
9892;SDS011;4985;49.092;8.542;2022-08-19T11:10:03;6.53;;;4.03;;
9892;SDS011;4985;49.092;8.542;2022-08-19T11:12:30;4.68;;;3.95;;
9892;SDS011;4985;49.092;8.542;2022-08-19T11:14:57;6.20;;;4.30;;
9892;SDS011;4985;49.092;8.542;2022-08-19T11:17:24;6.37;;;3.15;;
9892;SDS011;4985;49.092;8.542;2022-08-19T11:19:52;5.03;;;4.07;;
9892;SDS011;4985;49.092;8.542;2022-08-19T11:22:19;5.82;;;4.10;;
9892;SDS011;4985;49.092;8.542;2022-08-19T11:24:45;4.82;;;4.00;;
9892;SDS011;4985;49.092;8.542;2022-08-19T11:27:12;5.00;;;4.00;;
9892;SDS011;4985;49.092;8.542;2022-08-19T11:29:39;5.72;;;3.95;;
9892;SDS011;4985;49.092;8.542;2022-08-19T11:32:06;6.75;;;4.35;;
9892;SDS011;4985;49.092;8.542;2022-08-19T11:34:35;7.57;;;5.62;;
9892;SDS011;4985;49.092;8.542;2022-08-19T11:37:03;6.82;;;4.50;;
9892;SDS011;4985;49.092;8.542;2022-08-19T11:39:31;4.78;;;3.92;;
9892;SDS011;4985;49.092;8.542;2022-08-19T11:42:00;7.00;;;4.75;;
9892;SDS011;4985;49.092;8.542;2022-08-19T11:44:27;4.37;;;3.97;;
9892;SDS011;4985;49.092;8.542;2022-08-19T11:46:55;5.00;;;4.03;;
9892;SDS011;4985;49.092;8.542;2022-08-19T11:49:22;5.97;;;4.55;;
9892;SDS011;4985;49.092;8.542;2022-08-19T11:51:49;5.03;;;4.45;;
9892;SDS011;4985;49.092;8.542;2022-08-19T11:54:17;6.35;;;4.68;;
9892;SDS011;4985;49.092;8.542;2022-08-19T11:56:44;5.70;;;3.90;;
9892;SDS011;4985;49.092;8.542;2022-08-19T11:59:12;4.75;;;3.83;;
9892;SDS011;4985;49.092;8.542;2022-08-19T12:01:39;4.82;;;4.43;;
9892;SDS011;4985;49.092;8.542;2022-08-19T12:04:07;5.32;;;4.53;;
9892;SDS011;4985;49.092;8.542;2022-08-19T12:06:34;6.37;;;4.68;;
9892;SDS011;4985;49.092;8.542;2022-08-19T12:09:05;6.72;;;4.82;;
9892;SDS011;4985;49.092;8.542;2022-08-19T12:11:35;5.68;;;4.85;;
9892;SDS011;4985;49.092;8.542;2022-08-19T12:14:02;7.35;;;4.62;;
9892;SDS011;4985;49.092;8.542;2022-08-19T12:16:30;7.10;;;4.43;;
9892;SDS011;4985;49.092;8.542;2022-08-19T12:18:57;6.87;;;4.50;;
9892;SDS011;4985;49.092;8.542;2022-08-19T12:21:28;6.50;;;4.70;;
9892;SDS011;4985;49.092;8.542;2022-08-19T12:23:56;7.32;;;4.78;;
9892;SDS011;4985;49.092;8.542;2022-08-19T12:26:24;4.87;;;3.92;;
9892;SDS011;4985;49.092;8.542;2022-08-19T12:28:54;4.78;;;4.00;;
9892;SDS011;4985;49.092;8.542;2022-08-19T12:31:21;5.80;;;4.00;;
9892;SDS011;4985;49.092;8.542;2022-08-19T12:33:47;4.40;;;3.85;;
9892;SDS011;4985;49.092;8.542;2022-08-19T12:36:15;4.57;;;3.70;;
9892;SDS011;4985;49.092;8.542;2022-08-19T12:38:43;4.53;;;4.12;;
9892;SDS011;4985;49.092;8.542;2022-08-19T12:41:11;4.50;;;3.92;;
9892;SDS011;4985;49.092;8.542;2022-08-19T12:43:39;4.80;;;4.12;;
9892;SDS011;4985;49.092;8.542;2022-08-19T12:46:08;4.53;;;4.12;;
9892;SDS011;4985;49.092;8.542;2022-08-19T12:48:35;4.50;;;3.50;;
9892;SDS011;4985;49.092;8.542;2022-08-19T12:51:05;7.00;;;4.65;;
9892;SDS011;4985;49.092;8.542;2022-08-19T12:53:34;8.02;;;4.82;;
9892;SDS011;4985;49.092;8.542;2022-08-19T12:56:01;4.87;;;4.12;;
9892;SDS011;4985;49.092;8.542;2022-08-19T12:58:28;4.85;;;3.90;;
9892;SDS011;4985;49.092;8.542;2022-08-19T13:00:55;4.47;;;3.85;;
9892;SDS011;4985;49.092;8.542;2022-08-19T13:03:23;4.07;;;3.67;;
9892;SDS011;4985;49.092;8.542;2022-08-19T13:05:54;3.90;;;3.33;;
9892;SDS011;4985;49.092;8.542;2022-08-19T13:08:21;4.47;;;3.92;;
9892;SDS011;4985;49.092;8.542;2022-08-19T13:10:47;4.43;;;4.00;;
9892;SDS011;4985;49.092;8.542;2022-08-19T13:13:14;3.80;;;3.40;;
9892;SDS011;4985;49.092;8.542;2022-08-19T13:15:41;5.60;;;3.92;;
9892;SDS011;4985;49.092;8.542;2022-08-19T13:18:10;4.07;;;3.67;;
9892;SDS011;4985;49.092;8.542;2022-08-19T13:20:39;4.80;;;3.95;;
9892;SDS011;4985;49.092;8.542;2022-08-19T13:23:06;4.10;;;3.70;;
9892;SDS011;4985;49.092;8.542;2022-08-19T13:25:33;4.57;;;3.55;;
9892;SDS011;4985;49.092;8.542;2022-08-19T13:28:01;4.35;;;3.70;;
9892;SDS011;4985;49.092;8.542;2022-08-19T13:30:28;5.32;;;4.15;;
9892;SDS011;4985;49.092;8.542;2022-08-19T13:33:12;4.47;;;4.00;;
9892;SDS011;4985;49.092;8.542;2022-08-19T13:35:43;4.12;;;3.53;;
9892;SDS011;4985;49.092;8.542;2022-08-19T13:38:11;4.72;;;4.30;;
9892;SDS011;4985;49.092;8.542;2022-08-19T13:40:39;4.87;;;4.25;;
9892;SDS011;4985;49.092;8.542;2022-08-19T13:43:07;6.45;;;4.30;;
9892;SDS011;4985;49.092;8.542;2022-08-19T13:45:35;5.65;;;4.35;;
9892;SDS011;4985;49.092;8.542;2022-08-19T13:48:03;4.95;;;4.43;;
9892;SDS011;4985;49.092;8.542;2022-08-19T13:50:34;5.25;;;4.70;;
9892;SDS011;4985;49.092;8.542;2022-08-19T13:53:05;6.05;;;4.90;;
9892;SDS011;4985;49.092;8.542;2022-08-19T13:55:31;5.40;;;4.75;;
9892;SDS011;4985;49.092;8.542;2022-08-19T13:57:58;6.45;;;5.43;;
9892;SDS011;4985;49.092;8.542;2022-08-19T14:00:27;6.75;;;5.10;;
9892;SDS011;4985;49.092;8.542;2022-08-19T14:02:56;5.65;;;5.15;;
9892;SDS011;4985;49.092;8.542;2022-08-19T14:05:25;5.55;;;4.57;;
9892;SDS011;4985;49.092;8.542;2022-08-19T14:07:53;5.75;;;5.00;;
9892;SDS011;4985;49.092;8.542;2022-08-19T14:10:21;6.22;;;5.35;;
9892;SDS011;4985;49.092;8.542;2022-08-19T14:12:52;5.53;;;5.03;;
9892;SDS011;4985;49.092;8.542;2022-08-19T14:15:20;7.47;;;4.82;;
9892;SDS011;4985;49.092;8.542;2022-08-19T14:17:47;4.75;;;4.00;;
9892;SDS011;4985;49.092;8.542;2022-08-19T14:20:14;4.18;;;3.78;;
9892;SDS011;4985;49.092;8.542;2022-08-19T14:22:41;4.97;;;4.15;;
9892;SDS011;4985;49.092;8.542;2022-08-19T14:25:10;4.32;;;3.92;;
9892;SDS011;4985;49.092;8.542;2022-08-19T14:27:43;4.72;;;4.15;;
9892;SDS011;4985;49.092;8.542;2022-08-19T14:30:11;4.90;;;4.35;;
9892;SDS011;4985;49.092;8.542;2022-08-19T14:32:40;4.45;;;4.05;;
9892;SDS011;4985;49.092;8.542;2022-08-19T14:35:08;5.60;;;4.43;;
9892;SDS011;4985;49.092;8.542;2022-08-19T14:37:37;6.00;;;4.22;;
9892;SDS011;4985;49.092;8.542;2022-08-19T14:40:05;4.62;;;3.80;;
9892;SDS011;4985;49.092;8.542;2022-08-19T14:42:33;4.82;;;4.20;;
9892;SDS011;4985;49.092;8.542;2022-08-19T14:45:01;4.65;;;3.80;;
9892;SDS011;4985;49.092;8.542;2022-08-19T14:47:29;5.45;;;3.92;;
9892;SDS011;4985;49.092;8.542;2022-08-19T14:49:56;3.95;;;3.55;;
9892;SDS011;4985;49.092;8.542;2022-08-19T14:52:23;5.10;;;3.80;;
9892;SDS011;4985;49.092;8.542;2022-08-19T14:54:50;4.05;;;3.47;;
9892;SDS011;4985;49.092;8.542;2022-08-19T14:57:16;4.62;;;3.40;;
9892;SDS011;4985;49.092;8.542;2022-08-19T14:59:43;3.58;;;3.00;;
9892;SDS011;4985;49.092;8.542;2022-08-19T15:02:11;3.45;;;3.12;;
9892;SDS011;4985;49.092;8.542;2022-08-19T15:04:38;7.87;;;3.60;;
9892;SDS011;4985;49.092;8.542;2022-08-19T15:07:05;3.65;;;3.28;;
9892;SDS011;4985;49.092;8.542;2022-08-19T15:09:31;4.43;;;3.65;;
9892;SDS011;4985;49.092;8.542;2022-08-19T15:11:59;4.62;;;3.70;;